createdAt,value
2023-05-07T00:02:08.472Z,17.10
2023-05-07T00:04:41.797Z,17.10
2023-05-07T00:07:08.882Z,17.10
2023-05-07T00:09:39.055Z,17.20
2023-05-07T00:12:12.003Z,17.20
2023-05-07T00:14:39.056Z,17.30
2023-05-07T00:17:13.322Z,17.20
2023-05-07T00:19:40.859Z,17.10
2023-05-07T00:22:09.429Z,17.00
2023-05-07T00:24:37.617Z,16.90
2023-05-07T00:27:04.621Z,16.80
2023-05-07T00:29:31.884Z,16.80
2023-05-07T00:31:58.888Z,16.70
2023-05-07T00:34:27.043Z,16.70
2023-05-07T00:36:59.216Z,16.80
2023-05-07T00:43:59.038Z,17.00
2023-05-07T00:46:27.462Z,17.00
2023-05-07T00:48:55.401Z,17.10
2023-05-07T00:51:23.022Z,17.20
2023-05-07T00:53:55.798Z,17.30
2023-05-07T00:56:23.796Z,17.30
2023-05-07T00:58:52.501Z,17.30
2023-05-07T01:01:19.638Z,17.20
2023-05-07T01:03:49.173Z,17.30
2023-05-07T01:06:18.912Z,17.30
2023-05-07T01:08:47.189Z,17.30
2023-05-07T01:11:16.332Z,17.20
2023-05-07T01:13:44.930Z,17.20
2023-05-07T01:16:14.350Z,17.20
2023-05-07T01:18:43.565Z,17.20
2023-05-07T01:21:17.762Z,17.20
2023-05-07T01:23:47.450Z,17.20
2023-05-07T01:26:15.936Z,17.10
2023-05-07T01:28:46.127Z,17.00
2023-05-07T01:31:16.378Z,17.00
2023-05-07T01:33:47.187Z,17.10
2023-05-07T01:36:15.290Z,17.00
2023-05-07T01:38:45.680Z,17.00
2023-05-07T01:41:13.904Z,16.90
2023-05-07T01:43:45.672Z,16.90
2023-05-07T01:46:13.564Z,16.80
2023-05-07T01:48:41.737Z,16.90
2023-05-07T01:51:10.464Z,16.90
2023-05-07T01:53:51.741Z,16.80
2023-05-07T01:56:23.832Z,16.80
2023-05-07T01:59:19.270Z,16.80
2023-05-07T02:01:53.484Z,16.80
2023-05-07T02:04:29.880Z,16.90
2023-05-07T02:11:24.005Z,16.80
2023-05-07T02:13:51.849Z,16.70
2023-05-07T02:16:22.354Z,16.70
2023-05-07T02:18:49.557Z,16.80
2023-05-07T02:21:31.129Z,16.70
2023-05-07T02:24:00.764Z,16.70
2023-05-07T02:26:29.263Z,16.70
2023-05-07T02:28:57.606Z,16.60
2023-05-07T02:31:25.667Z,16.60
2023-05-07T02:33:52.837Z,16.50
2023-05-07T02:36:21.396Z,16.60
2023-05-07T02:38:55.745Z,16.60
2023-05-07T02:41:22.794Z,16.60
2023-05-07T02:48:18.046Z,16.50
2023-05-07T02:50:45.399Z,16.50
2023-05-07T02:53:15.068Z,16.50
2023-05-07T02:55:43.819Z,16.40
2023-05-07T02:58:12.028Z,16.50
2023-05-07T03:00:41.436Z,16.40
2023-05-07T03:03:22.037Z,16.50
2023-05-07T03:05:51.389Z,16.40
2023-05-07T03:08:20.411Z,16.50
2023-05-07T03:10:47.799Z,16.50
2023-05-07T03:13:15.000Z,16.70
2023-05-07T03:15:42.906Z,16.60
2023-05-07T03:18:10.675Z,16.60
2023-05-07T03:20:38.409Z,16.70
2023-05-07T03:23:06.730Z,16.80
2023-05-07T03:25:35.091Z,16.70
2023-05-07T03:28:05.406Z,16.70
2023-05-07T03:30:42.909Z,16.70
2023-05-07T03:33:10.367Z,16.80
2023-05-07T03:35:39.138Z,16.80
2023-05-07T03:38:07.035Z,16.60
2023-05-07T03:40:37.642Z,16.70
2023-05-07T03:43:05.704Z,16.70
2023-05-07T03:45:35.951Z,16.80
2023-05-07T03:48:15.992Z,16.80
2023-05-07T03:50:43.924Z,16.70
2023-05-07T03:53:11.356Z,16.70
2023-05-07T03:55:40.189Z,16.70
2023-05-07T03:58:07.622Z,16.80
2023-05-07T04:00:39.171Z,16.90
2023-05-07T04:03:15.729Z,16.90
2023-05-07T04:05:43.053Z,16.90
2023-05-07T04:08:11.912Z,16.90
2023-05-07T04:10:42.531Z,17.00
2023-05-07T04:13:12.702Z,17.10
2023-05-07T04:15:39.955Z,17.10
2023-05-07T04:18:12.634Z,17.10
2023-05-07T04:20:42.612Z,17.20
2023-05-07T04:23:19.883Z,17.20
2023-05-07T04:25:47.803Z,17.20
2023-05-07T04:28:24.686Z,17.20
2023-05-07T04:30:52.424Z,17.00
2023-05-07T04:33:20.857Z,16.80
2023-05-07T04:35:49.900Z,16.70
2023-05-07T04:38:19.319Z,16.70
2023-05-07T04:40:48.734Z,16.70
2023-05-07T04:43:21.800Z,16.70
2023-05-07T04:45:54.497Z,16.60
2023-05-07T04:48:28.616Z,16.60
2023-05-07T04:50:56.078Z,16.60
2023-05-07T04:53:24.811Z,16.70
2023-05-07T04:55:57.963Z,16.90
2023-05-07T04:58:28.920Z,17.00
2023-05-07T05:00:57.770Z,17.00
2023-05-07T05:03:25.188Z,16.90
2023-05-07T05:05:53.244Z,16.80
2023-05-07T05:08:22.721Z,16.80
2023-05-07T05:10:51.859Z,17.00
2023-05-07T05:13:19.036Z,17.20
2023-05-07T05:15:47.305Z,17.30
2023-05-07T05:18:14.339Z,17.30
2023-05-07T05:20:41.441Z,17.30
2023-05-07T05:23:12.568Z,17.30
2023-05-07T05:25:41.484Z,17.30
2023-05-07T05:28:12.502Z,17.30
2023-05-07T05:30:40.674Z,17.50
2023-05-07T05:33:09.300Z,17.70
2023-05-07T05:35:41.227Z,17.80
2023-05-07T05:38:12.228Z,17.70
2023-05-07T05:40:44.506Z,17.50
2023-05-07T05:43:12.637Z,17.50
2023-05-07T05:45:39.989Z,17.50
2023-05-07T05:48:07.668Z,17.50
2023-05-07T05:50:39.143Z,17.50
2023-05-07T05:53:07.583Z,17.40
2023-05-07T05:55:35.167Z,17.40
2023-05-07T05:58:02.701Z,17.40
2023-05-07T06:00:31.845Z,17.50
2023-05-07T06:03:05.279Z,17.50
2023-05-07T06:05:35.111Z,17.40
2023-05-07T06:08:03.869Z,17.40
2023-05-07T06:10:34.958Z,17.30
2023-05-07T06:13:06.563Z,17.50
2023-05-07T06:15:35.604Z,17.30
2023-05-07T06:18:09.027Z,17.20
2023-05-07T06:20:36.439Z,17.30
2023-05-07T06:23:17.139Z,17.40
2023-05-07T06:25:52.109Z,17.40
2023-05-07T06:37:31.656Z,16.70
2023-05-07T06:41:10.571Z,16.80
2023-05-07T06:43:44.159Z,17.00
2023-05-07T06:46:39.624Z,17.10
2023-05-07T06:49:20.795Z,17.10
2023-05-07T06:55:02.124Z,17.00
2023-05-07T06:57:51.117Z,17.00
2023-05-07T07:08:02.026Z,16.50
2023-05-07T07:10:43.832Z,16.50
2023-05-07T07:16:22.573Z,16.40
2023-05-07T07:49:16.298Z,16.40
2023-05-07T07:55:59.515Z,16.40
2023-05-07T08:09:56.226Z,16.80
2023-05-07T08:15:50.369Z,16.80
2023-05-07T08:28:57.771Z,16.70
2023-05-07T08:35:33.248Z,16.90
2023-05-07T08:47:22.521Z,17.20
2023-05-07T08:53:06.573Z,17.30
2023-05-07T08:58:24.742Z,17.50
2023-05-07T09:00:55.774Z,17.30
2023-05-07T09:03:24.774Z,17.40
2023-05-07T09:05:54.724Z,17.40
2023-05-07T09:11:16.142Z,17.10
2023-05-07T09:37:03.345Z,17.20
2023-05-07T09:39:49.051Z,17.10
2023-05-07T09:45:56.811Z,17.10
2023-05-07T09:48:40.833Z,17.30
2023-05-07T09:51:41.584Z,17.70
2023-05-07T09:54:16.417Z,18.10
2023-05-07T09:56:46.675Z,18.40
2023-05-07T10:03:44.520Z,17.50
2023-05-07T10:10:34.661Z,17.20
2023-05-07T10:16:24.785Z,17.20
2023-05-07T10:21:45.175Z,17.20
2023-05-07T10:24:56.396Z,17.20
2023-05-07T10:27:53.788Z,17.10
2023-05-07T10:30:39.678Z,17.00
2023-05-07T10:33:13.473Z,17.00
2023-05-07T10:36:27.229Z,17.00
2023-05-07T11:06:17.906Z,17.80
2023-05-07T11:09:12.960Z,18.00
2023-05-07T11:14:49.144Z,18.60
2023-05-07T11:20:44.670Z,18.50
2023-05-07T11:23:44.654Z,18.20
2023-05-07T11:26:40.870Z,18.10
2023-05-07T11:29:21.784Z,17.90
2023-05-07T11:35:37.780Z,17.80
2023-05-07T11:38:29.630Z,17.80
2023-05-07T11:42:16.781Z,17.80
2023-05-07T11:48:31.428Z,18.00
2023-05-07T11:54:26.551Z,18.20
2023-05-07T12:03:36.157Z,18.30
2023-05-07T12:12:11.804Z,18.20
2023-05-07T12:38:09.227Z,19.40
2023-05-07T12:43:29.727Z,19.50
2023-05-07T12:46:03.557Z,20.00
2023-05-07T12:48:30.920Z,20.20
2023-05-07T12:51:00.238Z,20.10
2023-05-07T12:53:28.546Z,20.30
2023-05-07T12:55:58.920Z,20.40
2023-05-07T12:58:25.895Z,20.50
2023-05-07T13:00:54.114Z,20.20
2023-05-07T13:03:45.770Z,20.00
2023-05-07T13:06:13.788Z,19.90
2023-05-07T13:08:45.599Z,19.80
2023-05-07T13:11:13.577Z,19.50
2023-05-07T13:13:42.436Z,19.40
2023-05-07T13:16:11.926Z,19.50
2023-05-07T13:18:41.109Z,19.20
2023-05-07T13:21:08.495Z,19.20
2023-05-07T13:23:36.473Z,19.30
2023-05-07T13:26:08.572Z,19.10
2023-05-07T13:28:43.014Z,19.00
2023-05-07T13:31:10.151Z,19.00
2023-05-07T13:33:37.179Z,19.20
2023-05-07T13:36:06.622Z,19.10
2023-05-07T13:38:39.299Z,19.00
2023-05-07T13:41:06.652Z,19.20
2023-05-07T13:43:34.576Z,19.50
2023-05-07T13:46:05.408Z,19.50
2023-05-07T13:48:32.601Z,19.00
2023-05-07T13:51:00.776Z,18.90
2023-05-07T13:53:28.287Z,18.90
2023-05-07T13:55:55.399Z,19.10
2023-05-07T13:58:23.303Z,19.10
2023-05-07T14:00:50.936Z,19.30
2023-05-07T14:03:19.402Z,19.60
2023-05-07T14:05:48.820Z,19.50
2023-05-07T14:08:20.858Z,19.50
2023-05-07T14:10:47.842Z,19.30
2023-05-07T14:13:15.076Z,19.30
2023-05-07T14:15:43.413Z,19.20
2023-05-07T14:18:10.569Z,19.40
2023-05-07T14:20:38.833Z,19.70
2023-05-07T14:23:06.671Z,19.80
2023-05-07T14:25:33.713Z,19.90
2023-05-07T14:28:03.046Z,19.90
2023-05-07T14:30:32.058Z,20.00
2023-05-07T14:33:00.254Z,20.10
2023-05-07T14:35:30.445Z,20.00
2023-05-07T14:38:00.945Z,19.70
2023-05-07T14:40:31.005Z,19.30
2023-05-07T14:42:58.372Z,19.20
2023-05-07T14:45:29.321Z,19.20
2023-05-07T14:48:48.053Z,19.30
2023-05-07T14:51:20.992Z,19.40
2023-05-07T14:53:49.104Z,19.50
2023-05-07T14:56:17.975Z,19.30
2023-05-07T14:58:48.899Z,19.20
2023-05-07T15:01:16.169Z,19.00
2023-05-07T15:03:46.649Z,18.80
2023-05-07T15:06:17.502Z,18.60
2023-05-07T15:08:50.345Z,18.50
2023-05-07T15:11:19.023Z,18.50
2023-05-07T15:13:46.998Z,18.40
2023-05-07T15:16:14.502Z,18.40
2023-05-07T15:18:41.694Z,18.40
2023-05-07T15:21:09.029Z,18.40
2023-05-07T15:23:38.141Z,18.30
2023-05-07T15:26:06.414Z,18.20
2023-05-07T15:28:33.812Z,18.20
2023-05-07T15:31:01.296Z,18.10
2023-05-07T15:33:29.359Z,18.10
2023-05-07T15:35:59.784Z,18.10
2023-05-07T15:38:27.611Z,18.10
2023-05-07T15:40:55.977Z,18.20
2023-05-07T15:43:24.009Z,18.20
2023-05-07T15:45:50.990Z,18.20
2023-05-07T15:48:18.473Z,18.20
2023-05-07T15:50:47.146Z,18.20
2023-05-07T15:53:21.281Z,18.30
2023-05-07T15:55:49.620Z,18.20
2023-05-07T15:58:20.197Z,18.10
2023-05-07T16:00:48.255Z,18.00
2023-05-07T16:03:15.330Z,17.90
2023-05-07T16:05:43.976Z,17.90
2023-05-07T16:08:11.128Z,17.90
2023-05-07T16:10:38.224Z,18.00
2023-05-07T16:13:07.966Z,17.80
2023-05-07T16:15:35.122Z,17.90
2023-05-07T16:19:04.702Z,17.90
2023-05-07T16:21:36.362Z,17.90
2023-05-07T16:24:03.546Z,17.90
2023-05-07T16:26:30.832Z,17.90
2023-05-07T16:28:57.913Z,17.90
2023-05-07T16:31:28.643Z,18.00
2023-05-07T16:33:58.072Z,18.00
2023-05-07T16:36:29.118Z,18.00
2023-05-07T16:38:57.967Z,18.00
2023-05-07T16:41:25.039Z,18.00
2023-05-07T16:43:52.512Z,17.90
2023-05-07T16:46:19.809Z,18.00
2023-05-07T16:48:46.794Z,18.00
2023-05-07T16:51:13.926Z,18.00
2023-05-07T16:53:41.980Z,17.90
2023-05-07T16:56:09.087Z,17.90
2023-05-07T16:58:39.372Z,17.90
2023-05-07T17:01:07.205Z,17.90
2023-05-07T17:03:34.324Z,18.00
2023-05-07T17:06:01.325Z,18.00
2023-05-07T17:08:28.334Z,17.90
2023-05-07T17:10:55.326Z,17.90
2023-05-07T17:13:22.670Z,18.00
2023-05-07T17:15:49.789Z,18.00
2023-05-07T17:18:16.797Z,17.90
2023-05-07T17:20:43.790Z,17.90
2023-05-07T17:23:10.847Z,17.90
2023-05-07T17:25:37.982Z,17.90
2023-05-07T17:31:13.773Z,17.90
2023-05-07T17:33:44.934Z,17.90
2023-05-07T17:36:11.963Z,17.90
2023-05-07T17:38:38.942Z,17.90
2023-05-07T17:41:08.057Z,17.80
2023-05-07T17:43:35.151Z,17.90
2023-05-07T17:46:29.854Z,17.90
2023-05-07T17:48:58.891Z,17.90
2023-05-07T17:51:36.091Z,17.80
2023-05-07T17:54:10.824Z,17.80
2023-05-07T17:56:38.929Z,17.80
2023-05-07T17:59:05.951Z,17.80
2023-05-07T18:01:34.592Z,17.80
2023-05-07T18:04:03.110Z,17.80
2023-05-07T18:06:32.165Z,17.90
2023-05-07T18:09:00.498Z,18.00
2023-05-07T18:11:28.828Z,17.90
2023-05-07T18:13:56.081Z,17.90
2023-05-07T18:16:24.127Z,17.90
2023-05-07T18:18:51.224Z,17.80
2023-05-07T18:21:21.194Z,17.90
2023-05-07T18:23:49.086Z,17.90
2023-05-07T18:26:16.338Z,17.80
2023-05-07T18:28:46.162Z,17.70
2023-05-07T18:31:13.505Z,17.70
2023-05-07T18:33:43.249Z,17.70
2023-05-07T18:36:12.318Z,17.70
2023-05-07T18:38:39.595Z,17.70
2023-05-07T18:41:06.646Z,17.70
2023-05-07T18:43:35.884Z,17.60
2023-05-07T18:46:04.953Z,17.70
2023-05-07T18:48:41.012Z,17.70
2023-05-07T18:51:12.584Z,17.70
2023-05-07T18:53:40.349Z,17.80
2023-05-07T18:56:08.680Z,17.70
2023-05-07T18:58:36.074Z,17.70
2023-05-07T19:01:08.013Z,17.80
2023-05-07T19:03:36.286Z,17.70
2023-05-07T19:06:05.461Z,17.70
2023-05-07T19:08:32.959Z,17.60
2023-05-07T19:11:00.114Z,17.60
2023-05-07T19:13:27.539Z,17.60
2023-05-07T19:15:56.236Z,17.60
2023-05-07T19:18:23.373Z,17.60
2023-05-07T19:20:53.621Z,17.60
2023-05-07T19:23:22.267Z,17.70
2023-05-07T19:25:51.650Z,17.60
2023-05-07T19:28:19.145Z,17.60
2023-05-07T19:30:46.200Z,17.60
2023-05-07T19:33:13.302Z,17.70
2023-05-07T19:35:40.399Z,17.70
2023-05-07T19:38:08.310Z,17.80
2023-05-07T19:40:35.418Z,17.90
2023-05-07T19:43:02.365Z,18.00
2023-05-07T19:45:29.647Z,17.90
2023-05-07T19:47:56.578Z,18.10
2023-05-07T19:50:23.630Z,18.10
2023-05-07T19:52:50.656Z,18.10
2023-05-07T19:55:18.827Z,18.00
2023-05-07T19:57:49.955Z,18.00
2023-05-07T20:00:18.120Z,17.90
2023-05-07T20:02:47.119Z,17.90
2023-05-07T20:05:14.460Z,17.80
2023-05-07T20:07:41.970Z,17.80
2023-05-07T20:10:11.790Z,17.80
2023-05-07T20:12:41.031Z,17.70
2023-05-07T20:15:21.982Z,17.70
2023-05-07T20:17:49.055Z,17.60
2023-05-07T20:20:16.156Z,17.50
2023-05-07T20:22:43.472Z,17.50
2023-05-07T20:25:13.546Z,17.50
2023-05-07T20:27:41.415Z,17.50
2023-05-07T20:30:09.501Z,17.40
2023-05-07T20:32:37.765Z,17.40
2023-05-07T20:35:06.471Z,17.40
2023-05-07T20:37:35.796Z,17.40
2023-05-07T20:40:06.773Z,17.30
2023-05-07T20:42:33.741Z,17.30
2023-05-07T20:45:03.369Z,17.30
2023-05-07T20:47:32.869Z,17.30
2023-05-07T20:50:02.007Z,17.30
2023-05-07T20:52:29.221Z,17.30
2023-05-07T20:54:57.312Z,17.30
2023-05-07T20:57:24.235Z,17.30
2023-05-07T20:59:51.194Z,17.30
2023-05-07T21:02:18.096Z,17.40
2023-05-07T21:04:45.098Z,17.40
2023-05-07T21:07:12.822Z,17.50
2023-05-07T21:09:42.432Z,17.60
2023-05-07T21:12:09.313Z,17.60
2023-05-07T21:14:38.600Z,17.60
2023-05-07T21:17:07.190Z,17.70
2023-05-07T21:19:35.622Z,17.70
2023-05-07T21:22:02.563Z,17.80
2023-05-07T21:24:29.510Z,17.90
2023-05-07T21:26:56.547Z,17.70
2023-05-07T21:29:23.908Z,17.60
2023-05-07T21:31:50.749Z,17.60
2023-05-07T21:34:17.720Z,17.50
2023-05-07T21:36:44.808Z,17.60
2023-05-07T21:39:12.106Z,17.60
2023-05-07T21:41:39.042Z,17.60
2023-05-07T21:44:06.274Z,17.50
2023-05-07T21:46:33.771Z,17.40
2023-05-07T21:49:00.775Z,17.30
2023-05-07T21:51:27.648Z,17.30
2023-05-07T21:53:55.931Z,17.30
2023-05-07T21:56:22.974Z,17.40
2023-05-07T21:58:49.875Z,17.40
2023-05-07T22:01:16.888Z,17.40
2023-05-07T22:03:44.263Z,17.40
2023-05-07T22:06:11.432Z,17.40
2023-05-07T22:08:38.355Z,17.40
2023-05-07T22:11:06.005Z,17.40
2023-05-07T22:13:33.895Z,17.40
2023-05-07T22:16:00.821Z,17.40
2023-05-07T22:18:27.741Z,17.30
2023-05-07T22:20:54.683Z,17.30
2023-05-07T22:23:21.677Z,17.30
2023-05-07T22:25:48.582Z,17.30
2023-05-07T22:28:15.857Z,17.30
2023-05-07T22:30:42.881Z,17.30
2023-05-07T22:33:13.271Z,17.30
2023-05-07T22:35:40.377Z,17.30
2023-05-07T22:38:07.241Z,17.30
2023-05-07T22:40:34.189Z,17.30
2023-05-07T22:43:01.454Z,17.30
2023-05-07T22:45:28.424Z,17.30
2023-05-07T22:47:57.425Z,17.30
2023-05-07T22:50:26.997Z,17.30
2023-05-07T22:52:54.920Z,17.30
2023-05-07T22:55:24.308Z,17.40
2023-05-07T22:57:51.283Z,17.40
2023-05-07T23:00:18.285Z,17.40
2023-05-07T23:02:46.760Z,17.40
2023-05-07T23:05:14.698Z,17.30
2023-05-07T23:07:41.698Z,17.20
2023-05-07T23:10:09.022Z,17.20
2023-05-07T23:12:38.533Z,17.10
2023-05-07T23:15:06.382Z,17.10
2023-05-07T23:17:34.560Z,17.10
2023-05-07T23:20:03.236Z,17.00
2023-05-07T23:22:30.180Z,17.00
2023-05-07T23:24:58.162Z,17.00
2023-05-07T23:27:25.074Z,16.90
2023-05-07T23:29:51.982Z,16.90
2023-05-07T23:32:18.898Z,16.90
2023-05-07T23:34:50.335Z,16.80
2023-05-07T23:37:18.282Z,16.90
2023-05-07T23:39:46.160Z,16.90
2023-05-07T23:42:15.016Z,16.90
2023-05-07T23:44:46.256Z,16.80
2023-05-07T23:47:16.409Z,16.90
2023-05-07T23:49:43.288Z,16.80
2023-05-07T23:52:10.199Z,16.70
2023-05-07T23:54:38.111Z,16.70
2023-05-07T23:57:05.017Z,16.70
2023-05-07T23:59:35.399Z,16.70
